Historique des stations

Station météo de Tour-en-Sologne

Altitude de la station : 97 m







Données météorologiques pour le 06/10/2022
Date
Heure
Températures Humidité Point de rosée Vitesse
du vent
Direction Rafales Windchill Pression Pluviométrie
Cumul
Date
Heure
Températures Humidité Point de rosée Vitesse
du vent
Direction Rafales Windchill Pression Pluviométrie
Cumul
06/10/2022 23:486.1 °C97 %5.6 °C---6.1 1030 hPa-
06/10/2022 23:456.1 °C97 %5.6 °C-ENE18 km/h6.1 1030 hPa-
06/10/2022 23:336.3 °C96 %5.6 °C---6.1 1030 hPa-
06/10/2022 23:306.3 °C96 %5.6 °C-ENE18 km/h6.1 1030 hPa-
06/10/2022 23:186.6 °C96 %6.1 °C---6.7 1030 hPa-
06/10/2022 23:156.6 °C96 %6.1 °C-ENE18 km/h6.7 1030 hPa-
06/10/2022 23:066.7 °C96 %6.1 °C---6.7 1030 hPa-
06/10/2022 23:006.8 °C96 %6.1 °C-ENE18 km/h6.7 1030 hPa-
06/10/2022 22:517.1 °C96 %6.7 °C---7.2 1030 hPa-
06/10/2022 22:457.2 °C96 %6.7 °C-ENE18 km/h7.2 1030 hPa-
06/10/2022 22:337.4 °C95 %6.7 °C---7.2 1030 hPa-
06/10/2022 22:307.4 °C95 %6.7 °C-ENE18 km/h7.2 1030 hPa-
06/10/2022 22:187.8 °C95 %7.2 °C---7.8 1030 hPa-
06/10/2022 22:157.8 °C95 %7.2 °C-ENE18 km/h7.8 1030 hPa-
06/10/2022 22:038.0 °C95 %7.2 °C---7.8 1030 hPa-
06/10/2022 22:008.1 °C95 %7.2 °C-ENE18 km/h8.3 1030 hPa-
06/10/2022 21:488.3 °C94 %7.2 °C---8.3 1030 hPa-
06/10/2022 21:458.3 °C94 %7.2 °C-ENE18 km/h8.3 1030 hPa-
06/10/2022 21:338.7 °C94 %7.8 °C---8.9 1030 hPa-
06/10/2022 21:308.7 °C94 %7.8 °C-ENE18 km/h8.9 1030 hPa-
06/10/2022 21:189.0 °C94 %8.3 °C---8.9 1030 hPa-
06/10/2022 21:159.1 °C93 %7.8 °C-ENE18 km/h8.9 1030 hPa-
06/10/2022 21:039.4 °C92 %8.3 °C---9.4 1030 hPa-
06/10/2022 21:009.4 °C92 %8.3 °C-ENE18 km/h9.4 1030 hPa-
06/10/2022 20:489.8 °C91 %8.3 °C---10.0 1030 hPa-
06/10/2022 20:459.9 °C91 %8.3 °C-ENE18 km/h10.0 1030 hPa-
06/10/2022 20:3310.3 °C90 %8.9 °C---10.6 1030 hPa-
06/10/2022 20:3010.4 °C90 %8.9 °C-ENE18 km/h10.6 1030 hPa-
06/10/2022 20:1810.9 °C88 %8.9 °C---11.1 1030 hPa-
06/10/2022 20:1511.0 °C87 %8.9 °C-ENE18 km/h11.1 1030 hPa-
06/10/2022 20:0311.6 °C85 %9.4 °C---11.7 1030 hPa-
06/10/2022 20:0011.8 °C85 %9.4 °C-ENE18 km/h11.7 1030 hPa-
06/10/2022 19:4812.4 °C83 %9.4 °C---12.2 1030 hPa-
06/10/2022 19:4512.6 °C82 %9.4 °C-ENE18 km/h12.8 1030 hPa-
06/10/2022 19:3313.4 °C79 %10.0 °C---13.3 1030 hPa-
06/10/2022 19:3013.6 °C78 %10.0 °C-ENE18 km/h13.9 1030 hPa-
06/10/2022 19:1814.4 °C75 %10.0 °C---14.4 1030 hPa-
06/10/2022 19:1514.8 °C74 %10.0 °C-ENE18 km/h15.0 1030 hPa-
06/10/2022 19:0315.8 °C71 %10.6 °C---15.6 1030 hPa-
06/10/2022 19:0015.9 °C71 %10.6 °C-ENE18 km/h16.1 1030 hPa-
06/10/2022 18:4817.2 °C67 %11.1 °C-ENE2 km/h17.2 1030 hPa-
06/10/2022 18:4517.6 °C65 %11.1 °C-N18 km/h17.8 1030 hPa-
06/10/2022 18:3318.7 °C56 %9.4 °C-NE2 km/h18.9 1030 hPa-
06/10/2022 18:3018.8 °C54 %9.4 °C-ENE18 km/h18.9 1030 hPa-
06/10/2022 18:1819.3 °C52 %8.9 °C-NE3 km/h19.4 1030 hPa-
06/10/2022 18:1519.3 °C51 %8.9 °C-NE18 km/h19.4 1030 hPa-
06/10/2022 18:0319.6 °C50 %8.9 °C2 km/hENE8 km/h19.4 1030 hPa-
06/10/2022 18:0019.6 °C50 %8.9 °C-E18 km/h19.4 1030 hPa-
06/10/2022 17:4819.6 °C52 %9.4 °C-NE3 km/h19.4 1030 hPa-
06/10/2022 17:4519.4 °C51 %8.9 °C-ESE18 km/h19.4 1030 hPa-
06/10/2022 17:3319.4 °C52 %9.4 °C2 km/hE11 km/h19.4 1030 hPa-
06/10/2022 17:3019.4 °C54 %10.0 °C-SE18 km/h19.4 1030 hPa-
06/10/2022 17:1819.3 °C57 %10.6 °C-ESE6 km/h19.4 1030 hPa-
06/10/2022 17:1519.3 °C57 %10.6 °C2 km/hS18 km/h19.4 1030 hPa-
06/10/2022 17:0319.3 °C56 %10.0 °C-ESE8 km/h19.4 1031 hPa-
06/10/2022 17:0019.3 °C55 %10.0 °C-ESE18 km/h19.4 1031 hPa-
06/10/2022 16:4819.3 °C59 %11.1 °C-ENE8 km/h19.4 1031 hPa-
06/10/2022 16:4519.2 °C57 %10.6 °C5 km/hNO18 km/h19.4 1031 hPa-
06/10/2022 16:3319.2 °C57 %10.6 °C-ENE10 km/h19.4 1031 hPa-
06/10/2022 16:3019.3 °C57 %10.6 °C8 km/hE18 km/h19.4 1031 hPa-
06/10/2022 16:1819.0 °C59 %10.6 °C6 km/hNNE11 km/h18.9 1031 hPa-
06/10/2022 16:1518.9 °C57 %10.0 °C3 km/hNO18 km/h18.9 1031 hPa-
06/10/2022 16:0319.0 °C58 %10.6 °C-NNO10 km/h18.9 1031 hPa-
06/10/2022 16:0018.9 °C58 %10.6 °C6 km/hNNE18 km/h18.9 1031 hPa-
06/10/2022 15:4818.8 °C58 %10.0 °C8 km/hNNE10 km/h18.9 1031 hPa-
06/10/2022 15:4518.7 °C60 %10.6 °C2 km/hNNE18 km/h18.9 1031 hPa-
06/10/2022 15:3318.8 °C58 %10.0 °C-ESE3 km/h18.9 1031 hPa-
06/10/2022 15:3018.8 °C59 %10.6 °C2 km/hN18 km/h18.9 1031 hPa-
06/10/2022 15:1818.6 °C59 %10.6 °C-S8 km/h18.9 1031 hPa-
06/10/2022 15:1518.5 °C59 %10.0 °C5 km/hS18 km/h18.3 1031 hPa-
06/10/2022 15:0318.4 °C60 %10.6 °C-ESE8 km/h18.3 1032 hPa-
06/10/2022 15:0018.3 °C59 %10.0 °C-E18 km/h18.3 1032 hPa-
06/10/2022 14:4818.3 °C60 %10.6 °C8 km/hSSE8 km/h18.3 1032 hPa-
06/10/2022 14:4518.2 °C59 %10.0 °C6 km/hESE18 km/h18.3 1032 hPa-
06/10/2022 14:3318.1 °C60 %10.0 °C2 km/hE11 km/h18.3 1032 hPa-
06/10/2022 14:3018.0 °C61 %10.0 °C2 km/hE18 km/h17.8 1032 hPa-
06/10/2022 14:1817.9 °C61 %10.0 °C-ENE11 km/h17.8 1032 hPa-
06/10/2022 14:1517.9 °C64 %11.1 °C-N18 km/h17.8 1032 hPa-
06/10/2022 14:0317.7 °C63 %10.6 °C-NNO8 km/h17.8 1032 hPa-
06/10/2022 14:0017.7 °C63 %10.6 °C3 km/hNE18 km/h17.8 1032 hPa-
06/10/2022 13:4817.6 °C63 %10.6 °C-SSE11 km/h17.8 1032 hPa-
06/10/2022 13:4617.5 °C63 %10.6 °C2 km/hSSE18 km/h17.8 1032 hPa-
06/10/2022 13:3317.1 °C64 %10.0 °C-NNE11 km/h17.2 1033 hPa-
06/10/2022 13:3117.1 °C67 %11.1 °C3 km/hNNE18 km/h17.2 1032 hPa-
06/10/2022 13:1817.1 °C66 %10.6 °C2 km/hONO10 km/h17.2 1032 hPa-
06/10/2022 13:1617.1 °C65 %10.6 °C2 km/hN18 km/h17.2 1033 hPa-
06/10/2022 13:0316.8 °C64 %10.0 °C-ENE8 km/h16.7 1032 hPa-
06/10/2022 13:0116.8 °C65 %10.0 °C-ENE18 km/h16.7 1033 hPa-
06/10/2022 12:4816.7 °C69 %11.1 °C-SSE8 km/h16.7 1033 hPa-
06/10/2022 12:4616.7 °C68 %10.6 °C-SSE18 km/h16.7 1032 hPa-
06/10/2022 12:3316.4 °C69 %10.6 °C2 km/hNE8 km/h16.7 1033 hPa-
06/10/2022 12:3116.3 °C69 %10.6 °C2 km/hE18 km/h16.1 1033 hPa-
06/10/2022 12:1816.0 °C71 %10.6 °C8 km/hENE10 km/h16.1 1033 hPa-
06/10/2022 12:1615.9 °C73 %11.1 °C2 km/hNO18 km/h16.1 1033 hPa-
06/10/2022 12:0215.4 °C74 %11.1 °C-E11 km/h15.6 1033 hPa-
06/10/2022 12:0015.4 °C75 %11.1 °C8 km/hENE18 km/h15.6 1033 hPa-
06/10/2022 11:4715.1 °C79 %11.7 °C8 km/hNE10 km/h15.0 1033 hPa-
06/10/2022 11:4515.1 °C79 %11.7 °C3 km/hNE18 km/h15.0 1033 hPa-
06/10/2022 11:3314.6 °C81 %11.7 °C6 km/hNE11 km/h14.4 1033 hPa-
06/10/2022 11:3014.6 °C81 %11.7 °C6 km/hNO18 km/h14.4 1033 hPa-
06/10/2022 11:1814.3 °C84 %11.7 °C6 km/hNE10 km/h14.4 1033 hPa-
06/10/2022 11:1514.2 °C83 %11.7 °C3 km/hN18 km/h14.4 1033 hPa-
06/10/2022 11:0313.9 °C85 %11.7 °C6 km/hNNE6 km/h13.9 1033 hPa-
06/10/2022 11:0013.9 °C86 %11.7 °C3 km/hNO18 km/h13.9 1033 hPa-
06/10/2022 10:4813.3 °C90 %11.7 °C-NO3 km/h13.3 1033 hPa-
06/10/2022 10:4513.1 °C92 %11.7 °C-NO18 km/h13.3 1033 hPa-
06/10/2022 10:3312.3 °C95 %11.7 °C2 km/hNO3 km/h12.2 1033 hPa-
06/10/2022 10:3012.1 °C97 %11.7 °C2 km/hNO18 km/h12.2 1033 hPa-
06/10/2022 10:1811.2 °C99 %11.1 °C-N3 km/h11.1 1033 hPa-
06/10/2022 10:1510.9 °C99 %10.6 °C2 km/hN18 km/h11.1 1033 hPa-
06/10/2022 10:0310.1 °C100 %10.0 °C---10.0 1033 hPa-
06/10/2022 10:009.9 °C100 %10.0 °C-N18 km/h10.0 1033 hPa-
06/10/2022 09:488.6 °C100 %8.9 °C---8.9 1033 hPa-
06/10/2022 09:458.3 °C100 %8.3 °C-N18 km/h8.3 1032 hPa-
06/10/2022 09:337.2 °C100 %7.2 °C---7.2 1032 hPa-
06/10/2022 09:306.9 °C100 %7.2 °C-N18 km/h7.2 1032 hPa-
06/10/2022 09:186.5 °C100 %6.7 °C---6.7 1032 hPa-
06/10/2022 09:166.5 °C99 %6.7 °C-ONO18 km/h6.7 1032 hPa-
06/10/2022 09:036.2 °C99 %6.1 °C---6.1 1032 hPa-
06/10/2022 09:016.1 °C99 %6.1 °C-ONO18 km/h6.1 1032 hPa-
06/10/2022 08:486.0 °C98 %5.6 °C---6.1 1032 hPa-
06/10/2022 08:466.0 °C98 %5.6 °C-ONO18 km/h6.1 1032 hPa-
06/10/2022 08:346.1 °C98 %5.6 °C---6.1 1032 hPa-
06/10/2022 08:316.1 °C98 %6.1 °C-ONO18 km/h6.1 1032 hPa-
06/10/2022 08:196.3 °C98 %6.1 °C---6.1 1032 hPa-
06/10/2022 08:166.3 °C98 %6.1 °C-ONO18 km/h6.1 1032 hPa-
06/10/2022 08:046.6 °C97 %6.1 °C---6.7 1032 hPa-
06/10/2022 08:016.6 °C98 %6.1 °C-ONO18 km/h6.7 1031 hPa-
06/10/2022 07:476.9 °C97 %6.7 °C---6.7 1031 hPa-
06/10/2022 07:456.9 °C98 %6.7 °C-NO18 km/h7.2 1031 hPa-
06/10/2022 07:337.2 °C97 %6.7 °C---7.2 1031 hPa-
06/10/2022 07:307.2 °C97 %6.7 °C-NO18 km/h7.2 1031 hPa-
06/10/2022 07:187.5 °C97 %7.2 °C---7.8 1031 hPa-
06/10/2022 07:157.6 °C97 %7.2 °C-NO18 km/h7.8 1031 hPa-
06/10/2022 07:037.8 °C97 %7.2 °C---7.8 1031 hPa-
06/10/2022 07:007.9 °C97 %7.2 °C-NO18 km/h7.8 1031 hPa-
06/10/2022 06:488.2 °C97 %7.8 °C---8.3 1031 hPa-
06/10/2022 06:458.2 °C97 %7.8 °C-NO18 km/h8.3 1031 hPa-
06/10/2022 06:338.4 °C97 %7.8 °C---8.3 1031 hPa-
06/10/2022 06:308.6 °C97 %8.3 °C-NO18 km/h8.3 1031 hPa-
06/10/2022 06:178.8 °C97 %8.3 °C---8.9 1031 hPa-
06/10/2022 06:158.9 °C97 %8.3 °C-NO18 km/h8.9 1031 hPa-
06/10/2022 06:039.2 °C97 %8.9 °C---9.4 1031 hPa-
06/10/2022 06:009.3 °C96 %8.9 °C-NO18 km/h9.4 1031 hPa-
06/10/2022 05:479.7 °C96 %8.9 °C---9.4 1031 hPa-
06/10/2022 05:459.7 °C96 %8.9 °C-NO18 km/h10.0 1031 hPa-
06/10/2022 05:3310.1 °C96 %9.4 °C---10.0 1031 hPa-
06/10/2022 05:3010.2 °C96 %9.4 °C-NO18 km/h10.0 1030 hPa-
06/10/2022 05:1810.4 °C96 %10.0 °C---10.6 1030 hPa-
06/10/2022 05:1510.4 °C96 %10.0 °C-NO18 km/h10.6 1030 hPa-
06/10/2022 05:0310.7 °C96 %10.0 °C---10.6 1030 hPa-
06/10/2022 05:0010.8 °C96 %10.0 °C-NO18 km/h10.6 1030 hPa-
06/10/2022 04:4811.1 °C96 %10.6 °C---11.1 1030 hPa-
06/10/2022 04:4511.1 °C96 %10.6 °C-NO18 km/h11.1 1030 hPa-
06/10/2022 04:3311.4 °C96 %11.1 °C---11.7 1030 hPa-
06/10/2022 04:3011.5 °C96 %11.1 °C-NO18 km/h11.7 1030 hPa-
06/10/2022 04:1811.8 °C96 %11.1 °C---11.7 1030 hPa-
06/10/2022 04:1511.8 °C96 %11.1 °C-NO18 km/h11.7 1030 hPa-
06/10/2022 04:0312.1 °C96 %11.7 °C---12.2 1030 hPa-
06/10/2022 04:0012.1 °C96 %11.7 °C-NO18 km/h12.2 1030 hPa-
06/10/2022 03:4812.2 °C97 %11.7 °C---12.2 1030 hPa-
06/10/2022 03:4512.3 °C96 %11.7 °C-NO18 km/h12.2 1030 hPa-
06/10/2022 03:3312.4 °C97 %12.2 °C---12.2 1030 hPa-
06/10/2022 03:3012.4 °C97 %12.2 °C-NO18 km/h12.2 1030 hPa-
06/10/2022 03:1812.5 °C96 %11.7 °C-NO2 km/h12.8 1030 hPa-
06/10/2022 03:1512.5 °C96 %11.7 °C-NO18 km/h12.8 1030 hPa-
06/10/2022 03:0312.6 °C96 %12.2 °C-NO3 km/h12.8 1030 hPa-
06/10/2022 03:0012.6 °C96 %12.2 °C-NO18 km/h12.8 1030 hPa-
06/10/2022 02:4812.7 °C96 %12.2 °C-NO2 km/h12.8 1029 hPa-
06/10/2022 02:4512.7 °C96 %12.2 °C-NO18 km/h12.8 1030 hPa-
06/10/2022 02:3312.8 °C96 %12.2 °C-NO2 km/h12.8 1029 hPa-
06/10/2022 02:3112.9 °C96 %12.2 °C-NO18 km/h12.8 1029 hPa-
06/10/2022 02:1812.9 °C95 %12.2 °C---12.8 1029 hPa-
06/10/2022 02:1612.9 °C95 %12.2 °C-NO18 km/h12.8 1029 hPa-
06/10/2022 02:0313.1 °C94 %12.2 °C---13.3 1029 hPa-
06/10/2022 02:0113.1 °C94 %12.2 °C-NO18 km/h13.3 1029 hPa-
06/10/2022 01:4813.2 °C93 %12.2 °C---13.3 1029 hPa-
06/10/2022 01:4613.2 °C93 %12.2 °C-NO18 km/h13.3 1029 hPa-
06/10/2022 01:3313.3 °C92 %12.2 °C---13.3 1029 hPa-
06/10/2022 01:3113.3 °C92 %12.2 °C-NO18 km/h13.3 1029 hPa-
06/10/2022 01:1813.4 °C91 %12.2 °C---13.3 1028 hPa-
06/10/2022 01:1613.4 °C91 %12.2 °C-NO18 km/h13.3 1028 hPa-
06/10/2022 01:0313.5 °C91 %12.2 °C---13.3 1028 hPa-
06/10/2022 01:0113.5 °C91 %12.2 °C-NO18 km/h13.3 1028 hPa-
06/10/2022 00:4813.6 °C91 %12.2 °C2 km/hNO10 km/h13.3 1028 hPa-
06/10/2022 00:4613.6 °C91 %12.2 °C-NO18 km/h13.3 1028 hPa-
06/10/2022 00:3313.7 °C93 %12.8 °C-ONO11 km/h13.9 1028 hPa-
06/10/2022 00:3013.7 °C93 %12.8 °C3 km/hNO18 km/h13.9 1028 hPa-
06/10/2022 00:1813.8 °C93 %12.8 °C8 km/hNNO13 km/h13.3 1028 hPa-
06/10/2022 00:1513.8 °C93 %12.8 °C-NO18 km/h13.9 1028 hPa-
06/10/2022 00:0313.8 °C93 %12.8 °C11 km/hNO19 km/h12.8 1028 hPa-
06/10/2022 00:0013.9 °C93 %12.8 °C6 km/hO11 km/h13.9 1028 hPa-


Minima :

Température : 6.0 °C
Humidité : 50 %
Point de rosée : 5.6 °C
Vent moyen : 2 km/h
Windchill : 6.1
Pression atm. : 1028 hPa
Maxima :

Température : 19.6 °C
Humidité : 100 %
Point de rosée : 12.8 °C
Vent moyen : 11 km/h
Windchill : 19.4
Pression atm. : 1033 hPa
Rafales max : 19 km/h
Cumul de pluie sur 24H : 0 mm

Tour-en-Sologne est une commune du département Loir-et-Cher (41).
La station météorologique du réseau de l'association la plus proche de Tour-en-Sologne est celle de Chailles



Icône Facebook Association Météo Centre Icône Twitter Association Météo Centre Icône Chaîne Youtube Association Météo Centre Icône contact Association Météo Centre Icône Insta Association Météo Centre